JAL3744 RJFG-RJFK
Flight info
| Callsign | JAL3744 |
|---|---|
| Flight time | 0h 23m |
| Altitude | 11000 |
| Route | KAGYA KINKO |
| Aircraft | AT76/M-SDFGIRY/S |
Departure
| Time | 2026-05-08 13:41 |
|---|---|
| Airport | New Tanegashima Airport (RJFG) |
Arrival
| Time | 2026-05-08 14:05 |
|---|---|
| Airport | Kagoshima Airport (RJFK) |
| Time | Latitude | Longitude | Altitude | Speed | Heading |
|---|---|---|---|---|---|
| 2026-05-08 13:26 | 30.60869 | 130.99126 | 776 ft | 0 kts | 129° |
| 2026-05-08 13:36 | 30.60866 | 130.99129 | 776 ft | 4 kts | 134° |
| 2026-05-08 13:36 | 30.60814 | 130.99114 | 776 ft | 9 kts | 234° |
| 2026-05-08 13:36 | 30.60792 | 130.99068 | 776 ft | 5 kts | 225° |
| 2026-05-08 13:36 | 30.60761 | 130.99041 | 776 ft | 6 kts | 212° |
| 2026-05-08 13:37 | 30.60723 | 130.99011 | 776 ft | 7 kts | 214° |
| 2026-05-08 13:37 | 30.60680 | 130.98977 | 775 ft | 8 kts | 215° |
| 2026-05-08 13:37 | 30.60650 | 130.98942 | 775 ft | 1 kts | 268° |
| 2026-05-08 13:37 | 30.60650 | 130.98940 | 775 ft | 1 kts | 261° |
| 2026-05-08 13:38 | 30.60634 | 130.98940 | 775 ft | 7 kts | 155° |
| 2026-05-08 13:38 | 30.60572 | 130.99042 | 773 ft | 21 kts | 123° |
| 2026-05-08 13:38 | 30.60484 | 130.99199 | 771 ft | 25 kts | 122° |
| 2026-05-08 13:38 | 30.60385 | 130.99374 | 769 ft | 27 kts | 124° |
| 2026-05-08 13:39 | 30.60279 | 130.99560 | 769 ft | 28 kts | 124° |
| 2026-05-08 13:39 | 30.60171 | 130.99752 | 766 ft | 29 kts | 123° |
| 2026-05-08 13:39 | 30.60072 | 130.99939 | 765 ft | 26 kts | 111° |
| 2026-05-08 13:39 | 30.59992 | 131.00075 | 763 ft | 8 kts | 177° |
| 2026-05-08 13:40 | 30.59989 | 131.00060 | 763 ft | 1 kts | 301° |
| 2026-05-08 13:40 | 30.59991 | 131.00059 | 763 ft | 0 kts | 311° |
| 2026-05-08 13:40 | 30.60021 | 131.00014 | 763 ft | 29 kts | 304° |
| 2026-05-08 13:40 | 30.60248 | 130.99617 | 768 ft | 86 kts | 303° |
| 2026-05-08 13:41 | 30.60657 | 130.98891 | 790 ft | 124 kts | 302° |
| 2026-05-08 13:41 | 30.61138 | 130.98004 | 1105 ft | 138 kts | 300° |
| 2026-05-08 13:41 | 30.61709 | 130.96903 | 1088 ft | 171 kts | 302° |
| 2026-05-08 13:41 | 30.62291 | 130.95789 | 1822 ft | 153 kts | 304° |
| 2026-05-08 13:42 | 30.62788 | 130.94754 | 2693 ft | 143 kts | 303° |
| 2026-05-08 13:42 | 30.63446 | 130.93994 | 3051 ft | 140 kts | 342° |
| 2026-05-08 13:42 | 30.64459 | 130.93747 | 3058 ft | 158 kts | 348° |
| 2026-05-08 13:42 | 30.65576 | 130.93556 | 3207 ft | 164 kts | 353° |
| 2026-05-08 13:43 | 30.66711 | 130.93417 | 3433 ft | 165 kts | 354° |
| 2026-05-08 13:43 | 30.67854 | 130.93315 | 3672 ft | 165 kts | 354° |
| 2026-05-08 13:43 | 30.69005 | 130.93227 | 3901 ft | 166 kts | 354° |
| 2026-05-08 13:43 | 30.70159 | 130.93114 | 4140 ft | 167 kts | 353° |
| 2026-05-08 13:44 | 30.71310 | 130.92985 | 4478 ft | 166 kts | 356° |
| 2026-05-08 13:44 | 30.72467 | 130.92943 | 4798 ft | 167 kts | 353° |
| 2026-05-08 13:44 | 30.73628 | 130.92783 | 5105 ft | 169 kts | 351° |
| 2026-05-08 13:44 | 30.74804 | 130.92706 | 5382 ft | 171 kts | 354° |
| 2026-05-08 13:45 | 30.75993 | 130.92557 | 5664 ft | 173 kts | 351° |
| 2026-05-08 13:45 | 30.77189 | 130.92413 | 5970 ft | 174 kts | 352° |
| 2026-05-08 13:45 | 30.78394 | 130.92263 | 6267 ft | 175 kts | 351° |
| 2026-05-08 13:45 | 30.79612 | 130.92151 | 6541 ft | 177 kts | 355° |
| 2026-05-08 13:46 | 30.80786 | 130.91791 | 6745 ft | 176 kts | 335° |
| 2026-05-08 13:46 | 30.81926 | 130.91240 | 7001 ft | 178 kts | 336° |
| 2026-05-08 13:46 | 30.83088 | 130.90717 | 7278 ft | 180 kts | 337° |
| 2026-05-08 13:46 | 30.84272 | 130.90235 | 7573 ft | 181 kts | 338° |
| 2026-05-08 13:47 | 30.85472 | 130.89782 | 7854 ft | 182 kts | 338° |
| 2026-05-08 13:47 | 30.86685 | 130.89334 | 8114 ft | 184 kts | 338° |
| 2026-05-08 13:47 | 30.87891 | 130.88890 | 8370 ft | 185 kts | 338° |
| 2026-05-08 13:47 | 30.89125 | 130.88430 | 8633 ft | 187 kts | 338° |
| 2026-05-08 13:48 | 30.90365 | 130.87964 | 8936 ft | 188 kts | 338° |
| 2026-05-08 13:48 | 30.91615 | 130.87495 | 9363 ft | 190 kts | 337° |
| 2026-05-08 13:48 | 30.92879 | 130.87019 | 9732 ft | 194 kts | 337° |
| 2026-05-08 13:48 | 30.94199 | 130.86530 | 9884 ft | 203 kts | 338° |
| 2026-05-08 13:49 | 30.95577 | 130.86019 | 9943 ft | 213 kts | 338° |
| 2026-05-08 13:49 | 30.97015 | 130.85484 | 9971 ft | 221 kts | 338° |
| 2026-05-08 13:49 | 30.98508 | 130.84932 | 9979 ft | 229 kts | 338° |
| 2026-05-08 13:49 | 31.00044 | 130.84361 | 9987 ft | 235 kts | 338° |
| 2026-05-08 13:50 | 31.01617 | 130.83776 | 9989 ft | 239 kts | 338° |
| 2026-05-08 13:50 | 31.03217 | 130.83180 | 9991 ft | 243 kts | 338° |
| 2026-05-08 13:50 | 31.04840 | 130.82577 | 9992 ft | 246 kts | 338° |
| 2026-05-08 13:50 | 31.06479 | 130.81971 | 9991 ft | 248 kts | 339° |
| 2026-05-08 13:51 | 31.08132 | 130.81357 | 9997 ft | 250 kts | 338° |
| 2026-05-08 13:51 | 31.09795 | 130.80743 | 9999 ft | 251 kts | 338° |
| 2026-05-08 13:51 | 31.11465 | 130.80135 | 9989 ft | 252 kts | 339° |
| 2026-05-08 13:51 | 31.13150 | 130.79530 | 10018 ft | 254 kts | 339° |
| 2026-05-08 13:52 | 31.14843 | 130.78912 | 10038 ft | 255 kts | 338° |
| 2026-05-08 13:52 | 31.16539 | 130.78286 | 10052 ft | 256 kts | 338° |
| 2026-05-08 13:52 | 31.18237 | 130.77653 | 10026 ft | 257 kts | 339° |
| 2026-05-08 13:52 | 31.19941 | 130.77016 | 10080 ft | 258 kts | 338° |
| 2026-05-08 13:53 | 31.21658 | 130.76378 | 10094 ft | 259 kts | 339° |
| 2026-05-08 13:53 | 31.23354 | 130.75741 | 10056 ft | 260 kts | 338° |
| 2026-05-08 13:53 | 31.25079 | 130.75101 | 10025 ft | 260 kts | 338° |
| 2026-05-08 13:53 | 31.26795 | 130.74458 | 10014 ft | 259 kts | 339° |
| 2026-05-08 13:54 | 31.28506 | 130.73821 | 10004 ft | 258 kts | 338° |
| 2026-05-08 13:54 | 31.30213 | 130.73183 | 10004 ft | 257 kts | 338° |
| 2026-05-08 13:54 | 31.31921 | 130.72603 | 10001 ft | 256 kts | 347° |
| 2026-05-08 13:54 | 31.33702 | 130.72874 | 10005 ft | 265 kts | 15° |
| 2026-05-08 13:55 | 31.35374 | 130.73828 | 10004 ft | 270 kts | 28° |
| 2026-05-08 13:55 | 31.36896 | 130.75143 | 10000 ft | 274 kts | 36° |
| 2026-05-08 13:55 | 31.39806 | 130.78032 | 10056 ft | 275 kts | 37° |
| 2026-05-08 13:56 | 31.41272 | 130.79484 | 10085 ft | 277 kts | 36° |
| 2026-05-08 13:56 | 31.42747 | 130.80892 | 10037 ft | 266 kts | 35° |
| 2026-05-08 13:56 | 31.44201 | 130.82236 | 9618 ft | 267 kts | 34° |
| 2026-05-08 13:56 | 31.45653 | 130.83587 | 9160 ft | 266 kts | 34° |
| 2026-05-08 13:57 | 31.47099 | 130.84933 | 8754 ft | 265 kts | 34° |
| 2026-05-08 13:57 | 31.48543 | 130.86261 | 8424 ft | 263 kts | 34° |
| 2026-05-08 13:57 | 31.49982 | 130.87591 | 8036 ft | 263 kts | 35° |
| 2026-05-08 13:57 | 31.51432 | 130.88861 | 7615 ft | 255 kts | 25° |
| 2026-05-08 13:58 | 31.53109 | 130.89264 | 7332 ft | 245 kts | 351° |
| 2026-05-08 13:58 | 31.54619 | 130.88485 | 7019 ft | 238 kts | 318° |
| 2026-05-08 13:58 | 31.55660 | 130.87119 | 7043 ft | 210 kts | 314° |
| 2026-05-08 13:58 | 31.56647 | 130.85974 | 7051 ft | 197 kts | 325° |
| 2026-05-08 13:59 | 31.57992 | 130.85552 | 6779 ft | 207 kts | 353° |
| 2026-05-08 13:59 | 31.59455 | 130.85436 | 6533 ft | 209 kts | 354° |
| 2026-05-08 13:59 | 31.60832 | 130.85214 | 6224 ft | 191 kts | 337° |
| 2026-05-08 13:59 | 31.61949 | 130.84416 | 5632 ft | 195 kts | 328° |
| 2026-05-08 14:00 | 31.63115 | 130.83564 | 5142 ft | 200 kts | 329° |
| 2026-05-08 14:00 | 31.64315 | 130.82754 | 4538 ft | 200 kts | 332° |
| 2026-05-08 14:00 | 31.65530 | 130.81983 | 3991 ft | 196 kts | 333° |
| 2026-05-08 14:00 | 31.66704 | 130.81165 | 3296 ft | 196 kts | 331° |
| 2026-05-08 14:01 | 31.67875 | 130.80351 | 2595 ft | 196 kts | 332° |
| 2026-05-08 14:01 | 31.69057 | 130.79581 | 2066 ft | 190 kts | 332° |
| 2026-05-08 14:01 | 31.70131 | 130.78914 | 2096 ft | 160 kts | 332° |
| 2026-05-08 14:01 | 31.70998 | 130.78268 | 2347 ft | 138 kts | 326° |
| 2026-05-08 14:02 | 31.71757 | 130.77705 | 2554 ft | 122 kts | 332° |
| 2026-05-08 14:02 | 31.72517 | 130.77217 | 2418 ft | 128 kts | 333° |
| 2026-05-08 14:02 | 31.73304 | 130.76711 | 2257 ft | 130 kts | 331° |
| 2026-05-08 14:02 | 31.74100 | 130.76168 | 2086 ft | 136 kts | 331° |
| 2026-05-08 14:03 | 31.74931 | 130.75619 | 1886 ft | 137 kts | 330° |
| 2026-05-08 14:03 | 31.75748 | 130.75061 | 1703 ft | 135 kts | 330° |
| 2026-05-08 14:03 | 31.76531 | 130.74500 | 1536 ft | 127 kts | 328° |
| 2026-05-08 14:03 | 31.77277 | 130.73998 | 1331 ft | 119 kts | 330° |
| 2026-05-08 14:04 | 31.77963 | 130.73540 | 1148 ft | 108 kts | 330° |
| 2026-05-08 14:04 | 31.78589 | 130.73119 | 1027 ft | 100 kts | 329° |
| 2026-05-08 14:04 | 31.79183 | 130.72723 | 908 ft | 96 kts | 329° |
| 2026-05-08 14:04 | 31.79683 | 130.72381 | 883 ft | 50 kts | 330° |
| 2026-05-08 14:05 | 31.79950 | 130.72202 | 887 ft | 36 kts | 330° |
| 2026-05-08 14:05 | 31.80018 | 130.72078 | 889 ft | 11 kts | 241° |
| 2026-05-08 14:05 | 31.79980 | 130.71998 | 889 ft | 11 kts | 240° |
| 2026-05-08 14:05 | 31.79936 | 130.71922 | 888 ft | 11 kts | 240° |
| 2026-05-08 14:06 | 31.79902 | 130.71852 | 888 ft | 3 kts | 240° |
| 2026-05-08 14:06 | 31.79893 | 130.71836 | 888 ft | 1 kts | 267° |
| 2026-05-08 14:06 | 31.79894 | 130.71833 | 888 ft | 0 kts | 280° |
| 2026-05-08 14:06 | 31.79895 | 130.71832 | 888 ft | 0 kts | 296° |
| 2026-05-08 14:07 | 31.79901 | 130.71833 | 888 ft | 0 kts | 358° |
| 2026-05-08 14:07 | 31.79905 | 130.71834 | 888 ft | 0 kts | 9° |